sensor_id;sensor_type;location;lat;lon;timestamp;P1;durP1;ratioP1;P2;durP2;ratioP2
4885;SDS011;2457;51.788;6.136;2022-07-22T00:02:25;8.50;;;1.90;;
4885;SDS011;2457;51.788;6.136;2022-07-22T00:04:52;5.60;;;1.77;;
4885;SDS011;2457;51.788;6.136;2022-07-22T00:07:19;8.80;;;1.80;;
4885;SDS011;2457;51.788;6.136;2022-07-22T00:09:47;10.20;;;2.70;;
4885;SDS011;2457;51.788;6.136;2022-07-22T00:12:14;8.07;;;1.50;;
4885;SDS011;2457;51.788;6.136;2022-07-22T00:14:41;4.60;;;1.87;;
4885;SDS011;2457;51.788;6.136;2022-07-22T00:17:09;9.23;;;2.07;;
4885;SDS011;2457;51.788;6.136;2022-07-22T00:19:36;11.53;;;2.00;;
4885;SDS011;2457;51.788;6.136;2022-07-22T00:22:03;5.10;;;1.70;;
4885;SDS011;2457;51.788;6.136;2022-07-22T00:24:31;4.70;;;1.70;;
4885;SDS011;2457;51.788;6.136;2022-07-22T00:26:58;6.30;;;1.97;;
4885;SDS011;2457;51.788;6.136;2022-07-22T00:29:25;4.30;;;1.60;;
4885;SDS011;2457;51.788;6.136;2022-07-22T00:31:53;5.40;;;1.43;;
4885;SDS011;2457;51.788;6.136;2022-07-22T00:34:20;5.23;;;1.87;;
4885;SDS011;2457;51.788;6.136;2022-07-22T00:36:47;4.80;;;1.70;;
4885;SDS011;2457;51.788;6.136;2022-07-22T00:39:14;9.90;;;2.03;;
4885;SDS011;2457;51.788;6.136;2022-07-22T00:41:42;3.90;;;1.50;;
4885;SDS011;2457;51.788;6.136;2022-07-22T00:44:09;5.90;;;1.67;;
4885;SDS011;2457;51.788;6.136;2022-07-22T00:46:37;7.00;;;1.53;;
4885;SDS011;2457;51.788;6.136;2022-07-22T00:49:05;10.63;;;1.83;;
4885;SDS011;2457;51.788;6.136;2022-07-22T00:51:33;13.30;;;1.93;;
4885;SDS011;2457;51.788;6.136;2022-07-22T00:54:01;6.20;;;1.53;;
4885;SDS011;2457;51.788;6.136;2022-07-22T00:56:29;3.77;;;1.27;;
4885;SDS011;2457;51.788;6.136;2022-07-22T00:58:58;6.03;;;1.53;;
4885;SDS011;2457;51.788;6.136;2022-07-22T01:01:25;5.40;;;1.70;;
4885;SDS011;2457;51.788;6.136;2022-07-22T01:03:52;5.60;;;1.70;;
4885;SDS011;2457;51.788;6.136;2022-07-22T01:06:20;5.87;;;1.53;;
4885;SDS011;2457;51.788;6.136;2022-07-22T01:08:47;4.17;;;1.20;;
4885;SDS011;2457;51.788;6.136;2022-07-22T01:11:16;11.90;;;1.80;;
4885;SDS011;2457;51.788;6.136;2022-07-22T01:13:44;5.83;;;1.70;;
4885;SDS011;2457;51.788;6.136;2022-07-22T01:16:12;5.30;;;1.50;;
4885;SDS011;2457;51.788;6.136;2022-07-22T01:18:39;3.87;;;1.27;;
4885;SDS011;2457;51.788;6.136;2022-07-22T01:21:07;4.40;;;1.37;;
4885;SDS011;2457;51.788;6.136;2022-07-22T01:23:35;6.40;;;1.70;;
4885;SDS011;2457;51.788;6.136;2022-07-22T01:26:03;6.47;;;1.20;;
4885;SDS011;2457;51.788;6.136;2022-07-22T01:28:31;4.33;;;1.40;;
4885;SDS011;2457;51.788;6.136;2022-07-22T01:30:58;6.33;;;1.50;;
4885;SDS011;2457;51.788;6.136;2022-07-22T01:33:25;4.73;;;1.50;;
4885;SDS011;2457;51.788;6.136;2022-07-22T01:35:53;8.77;;;1.40;;
4885;SDS011;2457;51.788;6.136;2022-07-22T01:38:20;4.20;;;1.63;;
4885;SDS011;2457;51.788;6.136;2022-07-22T01:40:47;4.33;;;1.47;;
4885;SDS011;2457;51.788;6.136;2022-07-22T01:43:14;4.40;;;1.50;;
4885;SDS011;2457;51.788;6.136;2022-07-22T01:45:44;4.37;;;1.47;;
4885;SDS011;2457;51.788;6.136;2022-07-22T01:48:11;6.67;;;1.50;;
4885;SDS011;2457;51.788;6.136;2022-07-22T01:50:39;5.10;;;1.40;;
4885;SDS011;2457;51.788;6.136;2022-07-22T01:53:06;3.67;;;1.30;;
4885;SDS011;2457;51.788;6.136;2022-07-22T01:55:33;4.33;;;1.23;;
4885;SDS011;2457;51.788;6.136;2022-07-22T01:58:01;3.90;;;1.30;;
4885;SDS011;2457;51.788;6.136;2022-07-22T02:00:30;5.13;;;1.70;;
4885;SDS011;2457;51.788;6.136;2022-07-22T02:02:58;4.10;;;1.40;;
4885;SDS011;2457;51.788;6.136;2022-07-22T02:05:25;5.90;;;1.60;;
4885;SDS011;2457;51.788;6.136;2022-07-22T02:07:52;5.20;;;1.40;;
4885;SDS011;2457;51.788;6.136;2022-07-22T02:10:20;4.00;;;1.73;;
4885;SDS011;2457;51.788;6.136;2022-07-22T02:12:47;3.23;;;1.10;;
4885;SDS011;2457;51.788;6.136;2022-07-22T02:15:14;10.53;;;1.40;;
4885;SDS011;2457;51.788;6.136;2022-07-22T02:17:41;7.37;;;1.53;;
4885;SDS011;2457;51.788;6.136;2022-07-22T02:20:09;5.23;;;1.90;;
4885;SDS011;2457;51.788;6.136;2022-07-22T02:22:36;9.40;;;1.53;;
4885;SDS011;2457;51.788;6.136;2022-07-22T02:25:04;6.07;;;1.47;;
4885;SDS011;2457;51.788;6.136;2022-07-22T02:27:31;5.57;;;1.60;;
4885;SDS011;2457;51.788;6.136;2022-07-22T02:29:58;6.40;;;1.70;;
4885;SDS011;2457;51.788;6.136;2022-07-22T02:32:25;4.73;;;1.50;;
4885;SDS011;2457;51.788;6.136;2022-07-22T02:34:53;4.10;;;1.40;;
4885;SDS011;2457;51.788;6.136;2022-07-22T02:37:20;4.83;;;1.50;;
4885;SDS011;2457;51.788;6.136;2022-07-22T02:39:48;4.73;;;2.07;;
4885;SDS011;2457;51.788;6.136;2022-07-22T02:42:15;4.23;;;1.60;;
4885;SDS011;2457;51.788;6.136;2022-07-22T02:44:42;8.33;;;1.97;;
4885;SDS011;2457;51.788;6.136;2022-07-22T02:47:09;6.03;;;2.07;;
4885;SDS011;2457;51.788;6.136;2022-07-22T02:49:37;6.03;;;2.20;;
4885;SDS011;2457;51.788;6.136;2022-07-22T02:52:04;4.90;;;1.80;;
4885;SDS011;2457;51.788;6.136;2022-07-22T02:54:31;4.87;;;2.23;;
4885;SDS011;2457;51.788;6.136;2022-07-22T02:56:59;5.90;;;1.70;;
4885;SDS011;2457;51.788;6.136;2022-07-22T02:59:26;4.00;;;1.90;;
4885;SDS011;2457;51.788;6.136;2022-07-22T03:01:53;4.00;;;1.80;;
4885;SDS011;2457;51.788;6.136;2022-07-22T03:04:21;9.57;;;2.40;;
4885;SDS011;2457;51.788;6.136;2022-07-22T03:06:48;6.77;;;2.00;;
4885;SDS011;2457;51.788;6.136;2022-07-22T03:09:15;5.67;;;1.90;;
4885;SDS011;2457;51.788;6.136;2022-07-22T03:11:42;6.93;;;2.00;;
4885;SDS011;2457;51.788;6.136;2022-07-22T03:14:10;8.53;;;1.87;;
4885;SDS011;2457;51.788;6.136;2022-07-22T03:16:37;4.87;;;1.60;;
4885;SDS011;2457;51.788;6.136;2022-07-22T03:19:05;6.60;;;1.70;;
4885;SDS011;2457;51.788;6.136;2022-07-22T03:21:32;3.70;;;1.50;;
4885;SDS011;2457;51.788;6.136;2022-07-22T03:23:59;5.63;;;1.87;;
4885;SDS011;2457;51.788;6.136;2022-07-22T03:26:27;4.63;;;1.97;;
4885;SDS011;2457;51.788;6.136;2022-07-22T03:28:54;6.80;;;1.83;;
4885;SDS011;2457;51.788;6.136;2022-07-22T03:31:21;4.53;;;1.60;;
4885;SDS011;2457;51.788;6.136;2022-07-22T03:33:49;6.93;;;1.73;;
4885;SDS011;2457;51.788;6.136;2022-07-22T03:36:16;5.80;;;1.97;;
4885;SDS011;2457;51.788;6.136;2022-07-22T03:38:44;3.97;;;1.53;;
4885;SDS011;2457;51.788;6.136;2022-07-22T03:41:11;8.20;;;1.67;;
4885;SDS011;2457;51.788;6.136;2022-07-22T03:43:38;7.30;;;2.07;;
4885;SDS011;2457;51.788;6.136;2022-07-22T03:46:05;6.33;;;1.70;;
4885;SDS011;2457;51.788;6.136;2022-07-22T03:48:33;4.53;;;1.90;;
4885;SDS011;2457;51.788;6.136;2022-07-22T03:51:00;7.07;;;2.33;;
4885;SDS011;2457;51.788;6.136;2022-07-22T03:53:27;6.83;;;1.90;;
4885;SDS011;2457;51.788;6.136;2022-07-22T03:55:55;7.00;;;1.70;;
4885;SDS011;2457;51.788;6.136;2022-07-22T03:58:22;8.60;;;1.93;;
4885;SDS011;2457;51.788;6.136;2022-07-22T04:00:50;5.30;;;2.00;;
4885;SDS011;2457;51.788;6.136;2022-07-22T04:03:18;6.47;;;1.97;;
4885;SDS011;2457;51.788;6.136;2022-07-22T04:05:45;7.77;;;2.00;;
4885;SDS011;2457;51.788;6.136;2022-07-22T04:08:12;5.30;;;1.80;;
4885;SDS011;2457;51.788;6.136;2022-07-22T04:10:40;4.53;;;2.20;;
4885;SDS011;2457;51.788;6.136;2022-07-22T04:13:07;9.80;;;2.70;;
4885;SDS011;2457;51.788;6.136;2022-07-22T04:15:34;6.43;;;2.27;;
4885;SDS011;2457;51.788;6.136;2022-07-22T04:18:02;3.63;;;1.50;;
4885;SDS011;2457;51.788;6.136;2022-07-22T04:20:29;11.27;;;2.50;;
4885;SDS011;2457;51.788;6.136;2022-07-22T04:22:56;5.30;;;2.10;;
4885;SDS011;2457;51.788;6.136;2022-07-22T04:25:24;6.60;;;2.00;;
4885;SDS011;2457;51.788;6.136;2022-07-22T04:27:51;6.07;;;2.30;;
4885;SDS011;2457;51.788;6.136;2022-07-22T04:30:18;5.40;;;1.80;;
4885;SDS011;2457;51.788;6.136;2022-07-22T04:32:46;4.87;;;2.13;;
4885;SDS011;2457;51.788;6.136;2022-07-22T04:35:13;7.00;;;1.80;;
4885;SDS011;2457;51.788;6.136;2022-07-22T04:37:40;9.13;;;2.40;;
4885;SDS011;2457;51.788;6.136;2022-07-22T04:40:08;9.13;;;1.93;;
4885;SDS011;2457;51.788;6.136;2022-07-22T04:42:35;6.27;;;2.17;;
4885;SDS011;2457;51.788;6.136;2022-07-22T04:45:02;6.43;;;1.80;;
4885;SDS011;2457;51.788;6.136;2022-07-22T04:47:30;5.80;;;2.17;;
4885;SDS011;2457;51.788;6.136;2022-07-22T04:49:57;6.10;;;1.83;;
4885;SDS011;2457;51.788;6.136;2022-07-22T04:52:24;6.73;;;1.80;;
4885;SDS011;2457;51.788;6.136;2022-07-22T04:54:51;7.57;;;2.03;;
4885;SDS011;2457;51.788;6.136;2022-07-22T04:57:19;4.53;;;1.80;;
4885;SDS011;2457;51.788;6.136;2022-07-22T04:59:46;7.40;;;1.93;;
4885;SDS011;2457;51.788;6.136;2022-07-22T05:02:13;5.93;;;1.87;;
4885;SDS011;2457;51.788;6.136;2022-07-22T05:04:40;8.23;;;1.90;;
4885;SDS011;2457;51.788;6.136;2022-07-22T05:07:08;10.83;;;2.27;;
4885;SDS011;2457;51.788;6.136;2022-07-22T05:09:35;4.13;;;2.13;;
4885;SDS011;2457;51.788;6.136;2022-07-22T05:12:03;8.40;;;2.57;;
4885;SDS011;2457;51.788;6.136;2022-07-22T05:14:30;6.40;;;2.27;;
4885;SDS011;2457;51.788;6.136;2022-07-22T05:16:57;8.77;;;2.50;;
4885;SDS011;2457;51.788;6.136;2022-07-22T05:19:25;8.10;;;2.17;;
4885;SDS011;2457;51.788;6.136;2022-07-22T05:21:52;11.13;;;2.47;;
4885;SDS011;2457;51.788;6.136;2022-07-22T05:24:20;5.27;;;2.27;;
4885;SDS011;2457;51.788;6.136;2022-07-22T05:26:47;4.63;;;1.83;;
4885;SDS011;2457;51.788;6.136;2022-07-22T05:29:15;9.93;;;1.93;;
4885;SDS011;2457;51.788;6.136;2022-07-22T05:31:42;7.60;;;2.00;;
4885;SDS011;2457;51.788;6.136;2022-07-22T05:34:09;5.00;;;2.00;;
4885;SDS011;2457;51.788;6.136;2022-07-22T05:36:37;4.50;;;2.07;;
4885;SDS011;2457;51.788;6.136;2022-07-22T05:39:04;5.60;;;1.90;;
4885;SDS011;2457;51.788;6.136;2022-07-22T05:41:31;7.00;;;2.57;;
4885;SDS011;2457;51.788;6.136;2022-07-22T05:43:59;13.60;;;2.37;;
4885;SDS011;2457;51.788;6.136;2022-07-22T05:46:26;11.00;;;2.27;;
4885;SDS011;2457;51.788;6.136;2022-07-22T05:48:53;6.50;;;2.10;;
4885;SDS011;2457;51.788;6.136;2022-07-22T05:51:21;5.30;;;1.90;;
4885;SDS011;2457;51.788;6.136;2022-07-22T05:53:48;6.60;;;2.63;;
4885;SDS011;2457;51.788;6.136;2022-07-22T05:56:16;7.93;;;2.80;;
4885;SDS011;2457;51.788;6.136;2022-07-22T05:58:43;6.60;;;2.20;;
4885;SDS011;2457;51.788;6.136;2022-07-22T06:01:11;9.90;;;2.43;;
4885;SDS011;2457;51.788;6.136;2022-07-22T06:03:38;4.80;;;2.30;;
4885;SDS011;2457;51.788;6.136;2022-07-22T06:06:06;4.80;;;2.17;;
4885;SDS011;2457;51.788;6.136;2022-07-22T06:08:35;8.90;;;2.20;;
4885;SDS011;2457;51.788;6.136;2022-07-22T06:11:02;4.93;;;2.00;;
4885;SDS011;2457;51.788;6.136;2022-07-22T06:13:30;7.83;;;2.17;;
4885;SDS011;2457;51.788;6.136;2022-07-22T06:15:57;7.47;;;2.60;;
4885;SDS011;2457;51.788;6.136;2022-07-22T06:18:26;7.60;;;2.37;;
4885;SDS011;2457;51.788;6.136;2022-07-22T06:20:53;6.93;;;2.90;;
4885;SDS011;2457;51.788;6.136;2022-07-22T06:23:22;10.70;;;2.90;;
4885;SDS011;2457;51.788;6.136;2022-07-22T06:25:49;9.37;;;2.77;;
4885;SDS011;2457;51.788;6.136;2022-07-22T06:28:17;5.20;;;2.33;;
4885;SDS011;2457;51.788;6.136;2022-07-22T06:30:44;8.10;;;3.30;;
4885;SDS011;2457;51.788;6.136;2022-07-22T06:33:11;5.67;;;2.70;;
4885;SDS011;2457;51.788;6.136;2022-07-22T06:35:39;5.50;;;2.57;;
4885;SDS011;2457;51.788;6.136;2022-07-22T06:38:07;8.50;;;2.60;;
4885;SDS011;2457;51.788;6.136;2022-07-22T06:40:34;6.60;;;4.37;;
4885;SDS011;2457;51.788;6.136;2022-07-22T06:43:02;12.03;;;2.70;;
4885;SDS011;2457;51.788;6.136;2022-07-22T06:45:30;6.10;;;1.60;;
4885;SDS011;2457;51.788;6.136;2022-07-22T06:47:58;5.97;;;1.90;;
4885;SDS011;2457;51.788;6.136;2022-07-22T06:50:25;10.60;;;1.80;;
4885;SDS011;2457;51.788;6.136;2022-07-22T06:52:53;4.37;;;1.70;;
4885;SDS011;2457;51.788;6.136;2022-07-22T06:55:20;5.20;;;1.70;;
4885;SDS011;2457;51.788;6.136;2022-07-22T06:57:47;4.00;;;1.33;;
4885;SDS011;2457;51.788;6.136;2022-07-22T07:00:15;8.80;;;1.43;;
4885;SDS011;2457;51.788;6.136;2022-07-22T07:02:42;6.30;;;1.50;;
4885;SDS011;2457;51.788;6.136;2022-07-22T07:05:10;6.70;;;1.30;;
4885;SDS011;2457;51.788;6.136;2022-07-22T07:07:37;5.10;;;1.30;;
4885;SDS011;2457;51.788;6.136;2022-07-22T07:10:04;5.93;;;1.50;;
4885;SDS011;2457;51.788;6.136;2022-07-22T07:12:32;9.80;;;2.30;;
4885;SDS011;2457;51.788;6.136;2022-07-22T07:14:59;3.30;;;1.17;;
4885;SDS011;2457;51.788;6.136;2022-07-22T07:17:26;6.47;;;1.37;;
4885;SDS011;2457;51.788;6.136;2022-07-22T07:19:53;5.73;;;1.17;;
4885;SDS011;2457;51.788;6.136;2022-07-22T07:22:21;4.90;;;1.40;;
4885;SDS011;2457;51.788;6.136;2022-07-22T07:24:48;5.00;;;1.37;;
4885;SDS011;2457;51.788;6.136;2022-07-22T07:27:16;3.40;;;1.23;;
4885;SDS011;2457;51.788;6.136;2022-07-22T07:29:43;6.30;;;1.30;;
4885;SDS011;2457;51.788;6.136;2022-07-22T07:32:12;4.37;;;1.33;;
4885;SDS011;2457;51.788;6.136;2022-07-22T07:34:39;3.27;;;1.10;;
4885;SDS011;2457;51.788;6.136;2022-07-22T07:37:06;4.27;;;1.17;;
4885;SDS011;2457;51.788;6.136;2022-07-22T07:39:34;3.60;;;1.20;;
4885;SDS011;2457;51.788;6.136;2022-07-22T07:42:02;4.37;;;1.50;;
4885;SDS011;2457;51.788;6.136;2022-07-22T07:44:30;6.93;;;1.20;;
4885;SDS011;2457;51.788;6.136;2022-07-22T07:46:57;4.87;;;1.40;;
4885;SDS011;2457;51.788;6.136;2022-07-22T07:49:24;5.70;;;1.50;;
4885;SDS011;2457;51.788;6.136;2022-07-22T07:51:52;5.60;;;1.40;;
4885;SDS011;2457;51.788;6.136;2022-07-22T07:54:19;5.53;;;1.40;;
4885;SDS011;2457;51.788;6.136;2022-07-22T07:56:46;8.33;;;1.53;;
4885;SDS011;2457;51.788;6.136;2022-07-22T07:59:14;5.43;;;1.37;;
4885;SDS011;2457;51.788;6.136;2022-07-22T08:01:43;7.57;;;1.63;;
4885;SDS011;2457;51.788;6.136;2022-07-22T08:04:10;3.83;;;1.10;;
4885;SDS011;2457;51.788;6.136;2022-07-22T08:06:37;9.33;;;1.43;;
4885;SDS011;2457;51.788;6.136;2022-07-22T08:09:05;4.70;;;1.23;;
4885;SDS011;2457;51.788;6.136;2022-07-22T08:11:32;3.80;;;1.20;;
4885;SDS011;2457;51.788;6.136;2022-07-22T08:13:59;3.30;;;1.30;;
4885;SDS011;2457;51.788;6.136;2022-07-22T08:16:26;4.87;;;1.30;;
4885;SDS011;2457;51.788;6.136;2022-07-22T08:18:54;6.73;;;1.57;;
4885;SDS011;2457;51.788;6.136;2022-07-22T08:21:21;12.23;;;1.63;;
4885;SDS011;2457;51.788;6.136;2022-07-22T08:23:48;3.80;;;1.27;;
4885;SDS011;2457;51.788;6.136;2022-07-22T08:26:15;3.93;;;1.10;;
4885;SDS011;2457;51.788;6.136;2022-07-22T08:28:43;4.00;;;1.30;;
4885;SDS011;2457;51.788;6.136;2022-07-22T08:31:10;5.17;;;1.03;;
4885;SDS011;2457;51.788;6.136;2022-07-22T08:33:37;3.47;;;1.40;;
4885;SDS011;2457;51.788;6.136;2022-07-22T08:36:05;3.17;;;1.37;;
4885;SDS011;2457;51.788;6.136;2022-07-22T08:38:32;5.47;;;1.30;;
4885;SDS011;2457;51.788;6.136;2022-07-22T08:41:00;3.40;;;1.20;;
4885;SDS011;2457;51.788;6.136;2022-07-22T08:43:27;4.37;;;1.30;;
4885;SDS011;2457;51.788;6.136;2022-07-22T08:45:55;6.20;;;1.30;;
4885;SDS011;2457;51.788;6.136;2022-07-22T08:48:22;5.37;;;1.37;;
4885;SDS011;2457;51.788;6.136;2022-07-22T08:50:50;5.50;;;1.40;;
4885;SDS011;2457;51.788;6.136;2022-07-22T08:53:17;3.93;;;1.50;;
4885;SDS011;2457;51.788;6.136;2022-07-22T08:55:45;6.17;;;1.70;;
4885;SDS011;2457;51.788;6.136;2022-07-22T08:58:13;3.83;;;1.07;;
4885;SDS011;2457;51.788;6.136;2022-07-22T09:00:41;4.47;;;1.20;;
4885;SDS011;2457;51.788;6.136;2022-07-22T09:03:18;5.63;;;1.70;;
4885;SDS011;2457;51.788;6.136;2022-07-22T09:05:46;6.03;;;1.30;;
4885;SDS011;2457;51.788;6.136;2022-07-22T09:08:14;3.70;;;1.23;;
4885;SDS011;2457;51.788;6.136;2022-07-22T09:10:41;4.83;;;1.20;;
4885;SDS011;2457;51.788;6.136;2022-07-22T09:13:09;7.23;;;2.03;;
4885;SDS011;2457;51.788;6.136;2022-07-22T09:15:38;5.50;;;1.60;;
4885;SDS011;2457;51.788;6.136;2022-07-22T09:18:08;5.03;;;1.30;;
4885;SDS011;2457;51.788;6.136;2022-07-22T09:20:36;5.53;;;1.40;;
4885;SDS011;2457;51.788;6.136;2022-07-22T09:23:08;3.50;;;1.50;;
4885;SDS011;2457;51.788;6.136;2022-07-22T09:25:36;7.33;;;1.27;;
4885;SDS011;2457;51.788;6.136;2022-07-22T09:30:40;4.67;;;1.23;;
4885;SDS011;2457;51.788;6.136;2022-07-22T09:33:04;6.20;;;1.43;;
4885;SDS011;2457;51.788;6.136;2022-07-22T09:35:32;5.90;;;1.23;;
4885;SDS011;2457;51.788;6.136;2022-07-22T09:38:00;4.33;;;1.30;;
4885;SDS011;2457;51.788;6.136;2022-07-22T09:40:28;4.83;;;1.60;;
4885;SDS011;2457;51.788;6.136;2022-07-22T09:42:57;6.70;;;1.90;;
4885;SDS011;2457;51.788;6.136;2022-07-22T09:45:30;6.43;;;1.80;;
4885;SDS011;2457;51.788;6.136;2022-07-22T09:47:54;5.47;;;1.50;;
4885;SDS011;2457;51.788;6.136;2022-07-22T09:50:23;6.90;;;2.07;;
4885;SDS011;2457;51.788;6.136;2022-07-22T09:52:51;4.20;;;1.27;;
4885;SDS011;2457;51.788;6.136;2022-07-22T09:55:19;4.70;;;1.60;;
4885;SDS011;2457;51.788;6.136;2022-07-22T09:57:47;3.40;;;1.40;;
4885;SDS011;2457;51.788;6.136;2022-07-22T10:00:16;4.60;;;1.60;;
4885;SDS011;2457;51.788;6.136;2022-07-22T10:02:50;9.33;;;1.50;;
4885;SDS011;2457;51.788;6.136;2022-07-22T10:05:18;4.47;;;1.40;;
4885;SDS011;2457;51.788;6.136;2022-07-22T10:07:47;6.27;;;1.70;;
4885;SDS011;2457;51.788;6.136;2022-07-22T10:10:15;5.90;;;1.43;;
4885;SDS011;2457;51.788;6.136;2022-07-22T10:12:43;4.40;;;1.30;;
4885;SDS011;2457;51.788;6.136;2022-07-22T10:15:11;5.80;;;1.50;;
4885;SDS011;2457;51.788;6.136;2022-07-22T10:17:41;5.63;;;1.70;;
4885;SDS011;2457;51.788;6.136;2022-07-22T10:20:08;5.03;;;1.50;;
4885;SDS011;2457;51.788;6.136;2022-07-22T10:25:13;3.90;;;1.60;;
4885;SDS011;2457;51.788;6.136;2022-07-22T10:27:45;4.87;;;1.73;;
4885;SDS011;2457;51.788;6.136;2022-07-22T10:30:13;5.93;;;1.67;;
4885;SDS011;2457;51.788;6.136;2022-07-22T10:32:41;5.87;;;1.60;;
4885;SDS011;2457;51.788;6.136;2022-07-22T10:35:19;5.50;;;1.80;;
4885;SDS011;2457;51.788;6.136;2022-07-22T10:37:38;4.00;;;1.40;;
4885;SDS011;2457;51.788;6.136;2022-07-22T10:40:17;5.47;;;1.73;;
4885;SDS011;2457;51.788;6.136;2022-07-22T10:43:02;3.83;;;1.47;;
4885;SDS011;2457;51.788;6.136;2022-07-22T10:45:33;7.63;;;1.50;;
4885;SDS011;2457;51.788;6.136;2022-07-22T10:48:02;4.70;;;1.80;;
4885;SDS011;2457;51.788;6.136;2022-07-22T10:53:04;5.00;;;1.63;;
4885;SDS011;2457;51.788;6.136;2022-07-22T10:55:32;4.90;;;1.90;;
4885;SDS011;2457;51.788;6.136;2022-07-22T10:58:00;6.60;;;1.80;;
4885;SDS011;2457;51.788;6.136;2022-07-22T11:00:27;5.93;;;1.40;;
4885;SDS011;2457;51.788;6.136;2022-07-22T11:02:54;4.17;;;1.77;;
4885;SDS011;2457;51.788;6.136;2022-07-22T11:05:25;4.50;;;2.07;;
4885;SDS011;2457;51.788;6.136;2022-07-22T11:07:52;5.90;;;1.90;;
4885;SDS011;2457;51.788;6.136;2022-07-22T11:10:20;4.07;;;1.63;;
4885;SDS011;2457;51.788;6.136;2022-07-22T11:12:48;4.03;;;1.60;;
4885;SDS011;2457;51.788;6.136;2022-07-22T11:15:16;3.30;;;1.30;;
4885;SDS011;2457;51.788;6.136;2022-07-22T11:17:43;5.10;;;1.60;;
4885;SDS011;2457;51.788;6.136;2022-07-22T11:20:11;7.40;;;2.10;;
4885;SDS011;2457;51.788;6.136;2022-07-22T11:22:40;5.47;;;1.50;;
4885;SDS011;2457;51.788;6.136;2022-07-22T11:25:08;6.20;;;1.30;;
4885;SDS011;2457;51.788;6.136;2022-07-22T11:27:36;3.50;;;1.40;;
4885;SDS011;2457;51.788;6.136;2022-07-22T11:30:04;6.03;;;1.83;;
4885;SDS011;2457;51.788;6.136;2022-07-22T11:32:33;6.43;;;1.77;;
4885;SDS011;2457;51.788;6.136;2022-07-22T11:35:00;3.47;;;1.23;;
4885;SDS011;2457;51.788;6.136;2022-07-22T11:37:27;5.43;;;1.73;;
4885;SDS011;2457;51.788;6.136;2022-07-22T11:39:59;6.33;;;1.80;;
4885;SDS011;2457;51.788;6.136;2022-07-22T11:42:27;7.97;;;2.40;;
4885;SDS011;2457;51.788;6.136;2022-07-22T11:44:54;4.77;;;1.97;;
4885;SDS011;2457;51.788;6.136;2022-07-22T11:47:21;3.67;;;1.87;;
4885;SDS011;2457;51.788;6.136;2022-07-22T11:49:49;6.97;;;1.80;;
4885;SDS011;2457;51.788;6.136;2022-07-22T11:52:16;4.43;;;1.70;;
4885;SDS011;2457;51.788;6.136;2022-07-22T11:54:44;4.20;;;1.70;;
4885;SDS011;2457;51.788;6.136;2022-07-22T11:57:12;7.27;;;1.70;;
4885;SDS011;2457;51.788;6.136;2022-07-22T11:59:39;4.27;;;1.80;;
4885;SDS011;2457;51.788;6.136;2022-07-22T12:02:07;3.53;;;1.50;;
4885;SDS011;2457;51.788;6.136;2022-07-22T12:04:35;9.17;;;1.83;;
4885;SDS011;2457;51.788;6.136;2022-07-22T12:07:03;6.13;;;1.90;;
4885;SDS011;2457;51.788;6.136;2022-07-22T12:09:36;5.50;;;1.63;;
4885;SDS011;2457;51.788;6.136;2022-07-22T12:12:00;4.43;;;1.70;;
4885;SDS011;2457;51.788;6.136;2022-07-22T12:14:29;4.77;;;1.57;;
4885;SDS011;2457;51.788;6.136;2022-07-22T12:19:32;12.57;;;2.10;;
4885;SDS011;2457;51.788;6.136;2022-07-22T12:22:00;4.97;;;1.83;;
4885;SDS011;2457;51.788;6.136;2022-07-22T12:24:29;5.53;;;1.83;;
4885;SDS011;2457;51.788;6.136;2022-07-22T12:27:01;3.53;;;1.40;;
4885;SDS011;2457;51.788;6.136;2022-07-22T12:29:29;4.90;;;1.80;;
4885;SDS011;2457;51.788;6.136;2022-07-22T12:31:58;5.00;;;1.80;;
4885;SDS011;2457;51.788;6.136;2022-07-22T12:36:59;7.47;;;2.27;;
4885;SDS011;2457;51.788;6.136;2022-07-22T12:39:28;5.77;;;1.60;;
4885;SDS011;2457;51.788;6.136;2022-07-22T12:41:56;3.60;;;1.60;;
4885;SDS011;2457;51.788;6.136;2022-07-22T12:44:24;6.20;;;1.90;;
4885;SDS011;2457;51.788;6.136;2022-07-22T12:46:53;5.20;;;2.00;;
4885;SDS011;2457;51.788;6.136;2022-07-22T12:49:25;4.93;;;1.43;;
4885;SDS011;2457;51.788;6.136;2022-07-22T12:52:10;4.17;;;1.50;;
4885;SDS011;2457;51.788;6.136;2022-07-22T12:54:34;7.53;;;1.57;;
4885;SDS011;2457;51.788;6.136;2022-07-22T12:57:03;4.40;;;1.83;;
4885;SDS011;2457;51.788;6.136;2022-07-22T12:59:30;4.03;;;1.40;;
4885;SDS011;2457;51.788;6.136;2022-07-22T13:01:57;7.33;;;1.70;;
4885;SDS011;2457;51.788;6.136;2022-07-22T13:04:24;3.67;;;1.50;;
4885;SDS011;2457;51.788;6.136;2022-07-22T13:06:51;6.97;;;1.70;;
4885;SDS011;2457;51.788;6.136;2022-07-22T13:09:19;4.90;;;1.80;;
4885;SDS011;2457;51.788;6.136;2022-07-22T13:11:46;5.50;;;1.80;;
4885;SDS011;2457;51.788;6.136;2022-07-22T13:14:14;4.97;;;1.83;;
4885;SDS011;2457;51.788;6.136;2022-07-22T13:16:41;5.97;;;1.77;;
4885;SDS011;2457;51.788;6.136;2022-07-22T13:19:08;5.50;;;1.90;;
4885;SDS011;2457;51.788;6.136;2022-07-22T13:21:36;4.57;;;1.80;;
4885;SDS011;2457;51.788;6.136;2022-07-22T13:24:03;9.77;;;1.73;;
4885;SDS011;2457;51.788;6.136;2022-07-22T13:26:30;5.87;;;1.97;;
4885;SDS011;2457;51.788;6.136;2022-07-22T13:28:58;8.13;;;2.07;;
4885;SDS011;2457;51.788;6.136;2022-07-22T13:31:25;4.73;;;1.67;;
4885;SDS011;2457;51.788;6.136;2022-07-22T13:33:53;5.37;;;1.90;;
4885;SDS011;2457;51.788;6.136;2022-07-22T13:36:20;5.80;;;1.90;;
4885;SDS011;2457;51.788;6.136;2022-07-22T13:38:48;6.10;;;2.03;;
4885;SDS011;2457;51.788;6.136;2022-07-22T13:41:17;4.07;;;1.40;;
4885;SDS011;2457;51.788;6.136;2022-07-22T13:43:45;5.40;;;2.53;;
4885;SDS011;2457;51.788;6.136;2022-07-22T13:46:12;5.07;;;1.90;;
4885;SDS011;2457;51.788;6.136;2022-07-22T13:48:39;6.50;;;1.73;;
4885;SDS011;2457;51.788;6.136;2022-07-22T13:51:07;4.53;;;1.70;;
4885;SDS011;2457;51.788;6.136;2022-07-22T13:53:34;5.50;;;1.90;;
4885;SDS011;2457;51.788;6.136;2022-07-22T13:56:02;3.93;;;1.77;;
4885;SDS011;2457;51.788;6.136;2022-07-22T13:58:30;4.30;;;1.90;;
4885;SDS011;2457;51.788;6.136;2022-07-22T14:00:57;7.67;;;2.50;;
4885;SDS011;2457;51.788;6.136;2022-07-22T14:03:24;5.53;;;1.90;;
4885;SDS011;2457;51.788;6.136;2022-07-22T14:05:52;5.87;;;1.97;;
4885;SDS011;2457;51.788;6.136;2022-07-22T14:08:19;7.60;;;2.20;;
4885;SDS011;2457;51.788;6.136;2022-07-22T14:10:46;5.23;;;1.77;;
4885;SDS011;2457;51.788;6.136;2022-07-22T14:13:13;8.40;;;1.70;;
4885;SDS011;2457;51.788;6.136;2022-07-22T14:15:41;8.67;;;2.10;;
4885;SDS011;2457;51.788;6.136;2022-07-22T14:18:08;9.17;;;2.13;;
4885;SDS011;2457;51.788;6.136;2022-07-22T14:20:35;5.50;;;1.70;;
4885;SDS011;2457;51.788;6.136;2022-07-22T14:23:03;5.17;;;1.63;;
4885;SDS011;2457;51.788;6.136;2022-07-22T14:25:31;6.50;;;1.73;;
4885;SDS011;2457;51.788;6.136;2022-07-22T14:27:59;7.67;;;1.90;;
4885;SDS011;2457;51.788;6.136;2022-07-22T14:30:26;3.90;;;1.77;;
4885;SDS011;2457;51.788;6.136;2022-07-22T14:32:55;4.57;;;1.60;;
4885;SDS011;2457;51.788;6.136;2022-07-22T14:35:23;6.23;;;2.00;;
4885;SDS011;2457;51.788;6.136;2022-07-22T14:37:50;6.47;;;2.17;;
4885;SDS011;2457;51.788;6.136;2022-07-22T14:40:17;5.50;;;1.77;;
4885;SDS011;2457;51.788;6.136;2022-07-22T14:42:45;4.73;;;1.47;;
4885;SDS011;2457;51.788;6.136;2022-07-22T14:45:12;4.87;;;1.70;;
4885;SDS011;2457;51.788;6.136;2022-07-22T14:47:39;4.53;;;1.80;;
4885;SDS011;2457;51.788;6.136;2022-07-22T14:50:07;4.30;;;1.80;;
4885;SDS011;2457;51.788;6.136;2022-07-22T14:52:34;4.80;;;1.80;;
4885;SDS011;2457;51.788;6.136;2022-07-22T14:55:02;5.83;;;2.10;;
4885;SDS011;2457;51.788;6.136;2022-07-22T14:57:29;6.20;;;1.93;;
4885;SDS011;2457;51.788;6.136;2022-07-22T14:59:56;5.90;;;1.97;;
4885;SDS011;2457;51.788;6.136;2022-07-22T15:02:23;4.00;;;1.70;;
4885;SDS011;2457;51.788;6.136;2022-07-22T15:04:51;8.87;;;2.03;;
4885;SDS011;2457;51.788;6.136;2022-07-22T15:07:19;5.90;;;2.03;;
4885;SDS011;2457;51.788;6.136;2022-07-22T15:09:46;4.03;;;1.70;;
4885;SDS011;2457;51.788;6.136;2022-07-22T15:12:13;7.07;;;2.23;;
4885;SDS011;2457;51.788;6.136;2022-07-22T15:14:40;4.60;;;1.70;;
4885;SDS011;2457;51.788;6.136;2022-07-22T15:17:08;3.97;;;1.87;;
4885;SDS011;2457;51.788;6.136;2022-07-22T15:19:35;4.60;;;2.00;;
4885;SDS011;2457;51.788;6.136;2022-07-22T15:22:02;5.57;;;1.93;;
4885;SDS011;2457;51.788;6.136;2022-07-22T15:24:30;6.90;;;1.43;;
4885;SDS011;2457;51.788;6.136;2022-07-22T15:26:57;7.77;;;1.63;;
4885;SDS011;2457;51.788;6.136;2022-07-22T15:29:24;6.27;;;2.20;;
4885;SDS011;2457;51.788;6.136;2022-07-22T15:31:52;5.50;;;2.00;;